Trans Sea — 9HA2564 — position and weather

sailwx.info

Track history (hours):
 
Tides and Currents Weather Stations Pressure Air Temp Water Temp Dewpoint Dewpoint Depression Visibility Wind Speed Wind Dir Waves Ship Positions

Trans Sea

Last reported at 2015-Aug-28 23:33 UTC. Time now 2015-Aug-31 19:48 UTC.
Position N 40°56' E 028°51'.

Length 107 m; draft 7.3 m.

Type: Ship (hazmat cat B). MMSI: 248887000.

Date/timePositionNaut miles runAvg speedWind from/ knotsBaromVisibWave heightAir tempDewpointWater temp
2015-Aug-28 23:33N 40°56' E 028°51'4 0.8
2015-Aug-28 18:32N 40°56' E 028°57'1312.6
2015-Aug-28 17:33N 40°47' E 029°07'1211.9
2015-Aug-28 16:31N 40°45' E 029°23'  
2015-Aug-24 12:22N 40°46' E 029°32'6 6.3
2015-Aug-24 11:30N 40°44' E 029°25'1010.3
2015-Aug-24 10:33N 40°43' E 029°12'1313.0
2015-Aug-24 09:33N 40°43' E 028°55'28910.9
2015-Aug-23 07:05N 37°35' E 024°12'46511.8
2015-Aug-21 15:33N 36°38' E 014°33'1313.2
2015-Aug-21 14:33N 36°43' E 014°17'1313.3
2015-Aug-21 13:34N 36°49' E 014°03'1413.8
2015-Aug-21 12:33N 36°56' E 013°48'1413.9
2015-Aug-21 11:33N 37°03' E 013°32'  
Track history (hours):
 
Tides and Currents Weather Stations Pressure Air Temp Water Temp Dewpoint Dewpoint Depression Visibility Wind Speed Wind Dir Waves Ship Positions

Trans Sea

Last reported at 2015-Aug-28 23:33 UTC. Time now 2015-Aug-31 19:48 UTC.
Position N 40°56' E 028°51'.

Length 107 m; draft 7.3 m.

Type: Ship (hazmat cat B). MMSI: 248887000.

Date/timePositionNaut miles runAvg speedWind from/ knotsBaromVisibWave heightAir tempDewpointWater temp
2015-Aug-28 23:33N 40°56' E 028°51'4 0.8
2015-Aug-28 18:32N 40°56' E 028°57'1312.6
2015-Aug-28 17:33N 40°47' E 029°07'1211.9
2015-Aug-28 16:31N 40°45' E 029°23'  
2015-Aug-24 12:22N 40°46' E 029°32'6 6.3
2015-Aug-24 11:30N 40°44' E 029°25'1010.3
2015-Aug-24 10:33N 40°43' E 029°12'1313.0
2015-Aug-24 09:33N 40°43' E 028°55'28910.9
2015-Aug-23 07:05N 37°35' E 024°12'46511.8
2015-Aug-21 15:33N 36°38' E 014°33'1313.2
2015-Aug-21 14:33N 36°43' E 014°17'1313.3
2015-Aug-21 13:34N 36°49' E 014°03'1413.8
2015-Aug-21 12:33N 36°56' E 013°48'1413.9
2015-Aug-21 11:33N 37°03' E 013°32'  

Dump ship's entire track history